Time;durP1;ratioP1;P1;durP2;ratioP2;P2;SDS_P1;SDS_P2;PMS_P1;PMS_P2;Temp;Humidity;BMP_temperature;BMP_pressure;BME280_temperature;BME280_humidity;BME280_pressure;Samples;Min_cycle;Max_cycle;Signal;HPM_P1;HPM_P2
2021/07/01 00:00:56;;;;;;;14.60;7.28;;;;;8.00;101995.00;;;;5088736;28;20024;-76
2021/07/01 00:03:23;;;;;;;20.40;12.32;;;;;8.00;102006.00;;;;5088396;28;20036;-76
2021/07/01 00:05:50;;;;;;;15.77;11.00;;;;;8.10;102027.00;;;;5088803;28;20020;-76
2021/07/01 00:08:16;;;;;;;10.25;7.88;;;;;8.10;102001.00;;;;5088647;28;20036;-77
2021/07/01 00:10:43;;;;;;;13.20;6.88;;;;;8.10;101993.00;;;;5070910;28;20414;-77
2021/07/01 00:13:10;;;;;;;11.23;6.95;;;;;8.20;101994.00;;;;5088921;28;20032;-76
2021/07/01 00:15:38;;;;;;;16.33;7.32;;;;;8.20;102013.00;;;;5088474;28;20016;-78
2021/07/01 00:18:06;;;;;;;14.00;8.18;;;;;8.10;101974.00;;;;5088431;28;20058;-78
2021/07/01 00:20:33;;;;;;;12.30;7.55;;;;;7.90;102018.00;;;;5087143;28;20089;-77
2021/07/01 00:23:00;;;;;;;12.40;6.78;;;;;7.90;101999.00;;;;5087342;28;20514;-75
2021/07/01 00:25:27;;;;;;;20.05;7.53;;;;;7.90;102014.00;;;;5086940;28;20032;-76
2021/07/01 00:27:54;;;;;;;18.00;9.73;;;;;8.00;102017.00;;;;5088100;28;20027;-77
2021/07/01 00:30:22;;;;;;;32.28;10.23;;;;;8.10;102011.00;;;;5087991;28;20513;-76
2021/07/01 00:32:50;;;;;;;17.65;10.35;;;;;8.00;102019.00;;;;5069777;28;20035;-76
2021/07/01 00:35:17;;;;;;;16.77;10.93;;;;;8.00;101993.00;;;;5087679;28;20028;-76
2021/07/01 00:37:45;;;;;;;16.75;9.57;;;;;8.00;102022.00;;;;5087593;28;20036;-76
2021/07/01 00:40:13;;;;;;;13.35;10.25;;;;;8.00;102016.00;;;;5069415;28;20035;-76
2021/07/01 00:42:40;;;;;;;16.65;11.30;;;;;8.00;102018.00;;;;5087985;28;20125;-76
2021/07/01 00:45:08;;;;;;;17.63;11.70;;;;;8.00;102030.00;;;;5087903;28;20100;-76
2021/07/01 00:47:35;;;;;;;18.05;11.50;;;;;8.00;102011.00;;;;5087284;28;20036;-76
2021/07/01 00:50:06;;;;;;;15.50;11.77;;;;;8.10;102001.00;;;;5069752;28;20454;-76
2021/07/01 00:52:33;;;;;;;14.63;10.40;;;;;8.10;102008.00;;;;5087487;28;20036;-76
2021/07/01 00:55:00;;;;;;;13.98;9.77;;;;;8.10;102023.00;;;;5087315;28;20396;-76
2021/07/01 00:57:26;;;;;;;12.15;9.98;;;;;8.10;102015.00;;;;5088251;28;20026;-76
2021/07/01 00:59:53;;;;;;;10.60;9.07;;;;;8.10;101999.00;;;;5087831;28;20056;-76
2021/07/01 01:02:20;;;;;;;11.27;9.00;;;;;8.10;102039.00;;;;5087737;28;20028;-76
2021/07/01 01:04:46;;;;;;;10.63;8.20;;;;;8.20;102020.00;;;;5087772;28;20495;-76
2021/07/01 01:07:13;;;;;;;9.80;8.23;;;;;8.20;102031.00;;;;5087698;28;20039;-76
2021/07/01 01:09:40;;;;;;;11.68;7.90;;;;;8.20;102029.00;;;;5087570;28;20032;-76
2021/07/01 01:12:07;;;;;;;16.20;10.60;;;;;8.20;102032.00;;;;5087458;28;20028;-76
2021/07/01 01:14:34;;;;;;;20.05;12.95;;;;;8.30;102020.00;;;;5087640;28;20040;-76
2021/07/01 01:17:01;;;;;;;20.17;14.00;;;;;8.30;102027.00;;;;5087398;28;20098;-76
2021/07/01 01:19:28;;;;;;;21.35;13.10;;;;;8.30;102014.00;;;;5087407;28;20032;-76
2021/07/01 01:21:55;;;;;;;22.88;14.27;;;;;8.30;102036.00;;;;5087392;28;20502;-76
2021/07/01 01:24:21;;;;;;;19.48;13.68;;;;;8.40;102012.00;;;;5087634;28;20115;-76
2021/07/01 01:26:48;;;;;;;17.80;12.57;;;;;8.40;102006.00;;;;5087343;28;20514;-76
2021/07/01 01:29:15;;;;;;;18.45;13.63;;;;;8.40;102005.00;;;;5086869;28;20044;-76
2021/07/01 01:31:41;;;;;;;15.70;13.23;;;;;8.40;102014.00;;;;5087600;28;20032;-78
2021/07/01 01:34:08;;;;;;;17.67;13.40;;;;;8.40;102023.00;;;;5087416;28;20031;-77
2021/07/01 01:36:35;;;;;;;16.70;13.70;;;;;8.40;101998.00;;;;5087243;28;20429;-76
2021/07/01 01:39:01;;;;;;;22.85;14.50;;;;;8.30;102024.00;;;;5087212;28;20028;-76
2021/07/01 01:41:29;;;;;;;15.43;12.85;;;;;8.30;102008.00;;;;5087270;28;20020;-77
2021/07/01 01:43:56;;;;;;;17.25;11.95;;;;;8.30;102029.00;;;;5086996;28;20548;-77
2021/07/01 01:46:23;;;;;;;23.50;13.65;;;;;8.30;102003.00;;;;5086834;28;20035;-77
2021/07/01 01:48:54;;;;;;;23.63;14.00;;;;;8.20;102030.00;;;;5086726;28;20028;-77
2021/07/01 01:51:20;;;;;;;20.58;13.80;;;;;8.20;102007.00;;;;5068926;28;20521;-78
2021/07/01 01:53:47;;;;;;;22.02;13.10;;;;;8.10;102011.00;;;;5087313;28;20039;-76
2021/07/01 01:56:14;;;;;;;22.40;12.95;;;;;8.10;102004.00;;;;5086815;28;20035;-75
2021/07/01 01:58:41;;;;;;;16.63;12.32;;;;;8.10;102015.00;;;;5086437;28;20139;-76
2021/07/01 02:01:07;;;;;;;17.02;10.93;;;;;8.10;102001.00;;;;5087003;28;20111;-75
2021/07/01 02:03:34;;;;;;;17.13;11.88;;;;;8.10;102002.00;;;;5086342;28;20525;-76
2021/07/01 02:06:00;;;;;;;17.55;11.85;;;;;8.10;102009.00;;;;5086891;28;20063;-76
2021/07/01 02:08:27;;;;;;;17.33;11.32;;;;;8.10;101999.00;;;;5087032;28;20089;-76
2021/07/01 02:10:54;;;;;;;16.52;10.88;;;;;8.00;101993.00;;;;5086565;28;20028;-77
2021/07/01 02:13:21;;;;;;;17.33;11.10;;;;;8.10;101998.00;;;;5086988;28;20380;-76
2021/07/01 02:15:47;;;;;;;15.48;11.35;;;;;8.00;102010.00;;;;5086732;28;20027;-77
2021/07/01 02:18:14;;;;;;;16.50;10.85;;;;;8.00;102007.00;;;;5086866;28;20488;-77
2021/07/01 02:20:41;;;;;;;14.60;10.18;;;;;7.90;101981.00;;;;5087252;28;20028;-76
2021/07/01 02:23:07;;;;;;;18.20;11.20;;;;;7.90;102006.00;;;;5086636;28;20043;-76
2021/07/01 02:25:35;;;;;;;18.55;11.70;;;;;7.80;101970.00;;;;5086102;28;20518;-76
2021/07/01 02:28:02;;;;;;;16.98;11.40;;;;;7.60;102012.00;;;;5086932;28;20406;-76
2021/07/01 02:30:29;;;;;;;24.42;9.55;;;;;7.50;102005.00;;;;5086738;28;20031;-76
2021/07/01 02:32:55;;;;;;;18.75;11.27;;;;;7.40;101999.00;;;;5086694;28;20024;-76
2021/07/01 02:35:22;;;;;;;16.40;11.18;;;;;7.30;101975.00;;;;5086589;28;20028;-77
2021/07/01 02:37:49;;;;;;;17.05;11.48;;;;;7.20;101999.00;;;;5086498;28;20115;-75
2021/07/01 02:40:16;;;;;;;18.40;12.10;;;;;7.10;101986.00;;;;5086463;28;20063;-76
2021/07/01 02:42:43;;;;;;;18.70;11.63;;;;;7.00;102015.00;;;;5087045;28;20552;-77
2021/07/01 02:45:11;;;;;;;17.30;11.07;;;;;6.90;101979.00;;;;5086401;28;20046;-76
2021/07/01 02:47:38;;;;;;;15.75;10.55;;;;;6.80;101984.00;;;;5087304;28;20059;-76
2021/07/01 02:50:06;;;;;;;22.55;11.88;;;;;6.80;101994.00;;;;5086451;28;20415;-76
2021/07/01 02:52:33;;;;;;;21.85;11.38;;;;;6.80;101999.00;;;;5086377;28;20040;-76
2021/07/01 02:55:00;;;;;;;16.92;11.95;;;;;6.70;101985.00;;;;5086600;28;20046;-76
2021/07/01 02:57:27;;;;;;;17.70;11.98;;;;;6.70;101981.00;;;;5085824;28;20032;-76
2021/07/01 02:59:53;;;;;;;26.08;14.55;;;;;6.70;101988.00;;;;5068191;28;20422;-76
2021/07/01 03:02:20;;;;;;;20.40;13.13;;;;;6.60;101969.00;;;;5086496;28;20028;-77
2021/07/01 03:04:46;;;;;;;21.40;12.95;;;;;6.50;101957.00;;;;5086592;28;20021;-76
2021/07/01 03:07:13;;;;;;;20.13;13.27;;;;;6.50;101964.00;;;;5087618;28;20067;-76
2021/07/01 03:09:40;;;;;;;19.98;13.02;;;;;6.40;101935.00;;;;5090353;28;20016;-76
2021/07/01 03:12:07;;;;;;;17.60;13.93;;;;;6.30;101940.00;;;;5090268;28;20032;-77
2021/07/01 03:14:34;;;;;;;26.02;15.77;;;;;6.20;101947.00;;;;5089937;28;20063;-76
2021/07/01 03:17:01;;;;;;;66.32;30.88;;;;;6.20;101976.00;;;;5089804;28;20039;-76
2021/07/01 03:19:27;;;;;;;57.88;27.73;;;;;6.20;101966.00;;;;5089757;28;20503;-77
2021/07/01 03:21:54;;;;;;;62.45;31.23;;;;;6.10;101971.00;;;;5089224;28;20553;-77
2021/07/01 03:24:21;;;;;;;61.92;28.88;;;;;6.00;101973.00;;;;5089505;28;20028;-77
2021/07/01 03:26:47;;;;;;;44.38;25.13;;;;;6.00;101975.00;;;;5089850;28;20046;-77
2021/07/01 03:29:14;;;;;;;40.38;22.90;;;;;6.00;101958.00;;;;5089643;28;20035;-76
2021/07/01 03:31:41;;;;;;;38.58;21.73;;;;;6.00;101971.00;;;;5089864;28;20115;-77
2021/07/01 03:34:07;;;;;;;39.03;22.45;;;;;6.10;101948.00;;;;5089342;28;20028;-77
2021/07/01 03:36:34;;;;;;;40.85;21.58;;;;;6.20;101942.00;;;;5089472;28;20036;-77
2021/07/01 03:39:03;;;;;;;34.25;21.25;;;;;6.00;101937.00;;;;5089829;28;20074;-76
2021/07/01 03:41:30;;;;;;;34.10;20.13;;;;;5.90;101923.00;;;;5089373;28;20028;-77
2021/07/01 03:43:57;;;;;;;35.17;20.80;;;;;5.90;101949.00;;;;5089736;28;20078;-76
2021/07/01 03:46:24;;;;;;;33.20;18.73;;;;;5.80;101930.00;;;;5089234;28;20518;-77
2021/07/01 03:48:50;;;;;;;32.30;17.73;;;;;5.80;101927.00;;;;5088932;28;20436;-76
2021/07/01 03:51:17;;;;;;;33.67;18.02;;;;;5.80;101935.00;;;;5088815;28;20399;-77
2021/07/01 03:53:44;;;;;;;46.97;23.73;;;;;5.80;101923.00;;;;5088819;28;20024;-76
2021/07/01 03:56:13;;;;;;;37.90;20.58;;;;;5.80;101948.00;;;;5071125;28;20028;-76
2021/07/01 03:58:40;;;;;;;43.05;20.27;;;;;5.80;101919.00;;;;5089228;28;20464;-76
2021/07/01 04:01:06;;;;;;;40.50;21.77;;;;;5.90;101933.00;;;;5088761;28;20024;-77
2021/07/01 04:03:33;;;;;;;33.47;19.85;;;;;5.90;101932.00;;;;5088577;28;20043;-77
2021/07/01 04:06:00;;;;;;;60.72;33.58;;;;;5.80;101925.00;;;;5089315;28;20046;-77
2021/07/01 04:08:26;;;;;;;45.97;25.40;;;;;5.70;101922.00;;;;5089094;28;20035;-77
2021/07/01 04:10:53;;;;;;;57.72;32.90;;;;;5.70;101918.00;;;;5089200;28;20035;-76
2021/07/01 04:13:20;;;;;;;75.40;41.80;;;;;5.60;101922.00;;;;5088657;28;20032;-76
2021/07/01 04:15:46;;;;;;;70.15;38.42;;;;;5.50;101905.00;;;;5088660;28;20059;-76
2021/07/01 04:18:14;;;;;;;55.65;31.33;;;;;5.50;101910.00;;;;5087805;28;20555;-75
2021/07/01 04:20:41;;;;;;;42.15;24.63;;;;;5.50;101915.00;;;;5088512;28;20024;-76
2021/07/01 04:23:09;;;;;;;28.42;17.75;;;;;5.50;101904.00;;;;5088402;28;20896;-76
2021/07/01 04:25:36;;;;;;;23.90;16.23;;;;;5.40;101918.00;;;;5088187;28;20035;-75
2021/07/01 04:28:03;;;;;;;26.50;15.70;;;;;5.40;101925.00;;;;5088888;28;20032;-76
2021/07/01 04:30:30;;;;;;;25.75;17.33;;;;;5.30;101900.00;;;;5088638;28;20475;-76
2021/07/01 04:32:57;;;;;;;26.55;17.85;;;;;5.30;101905.00;;;;5088570;28;20069;-75
2021/07/01 04:35:24;;;;;;;27.67;15.43;;;;;5.30;101889.00;;;;5088551;28;20094;-76
2021/07/01 04:37:51;;;;;;;21.05;12.90;;;;;5.30;101932.00;;;;5088339;28;20460;-76
2021/07/01 04:40:17;;;;;;;18.20;12.48;;;;;5.30;101922.00;;;;5088275;28;20024;-75
2021/07/01 04:42:44;;;;;;;17.38;12.00;;;;;5.20;101917.00;;;;5087694;28;20047;-76
2021/07/01 04:45:11;;;;;;;16.08;11.32;;;;;5.20;101929.00;;;;5087894;28;20380;-76
2021/07/01 04:47:38;;;;;;;23.40;11.98;;;;;5.30;101909.00;;;;5088191;28;20440;-76
2021/07/01 04:50:05;;;;;;;16.70;11.13;;;;;5.20;101913.00;;;;5087350;28;20027;-76
2021/07/01 04:52:32;;;;;;;16.90;11.90;;;;;5.30;101926.00;;;;5087737;28;20380;-76
2021/07/01 04:54:59;;;;;;;20.50;11.73;;;;;5.20;101919.00;;;;5088016;28;20356;-76
2021/07/01 04:57:26;;;;;;;15.10;10.45;;;;;5.20;101921.00;;;;5088528;28;20025;-76
2021/07/01 04:59:52;;;;;;;16.48;10.85;;;;;5.20;101895.00;;;;5087862;28;20052;-75
2021/07/01 05:02:19;;;;;;;17.25;11.70;;;;;5.30;101900.00;;;;5087718;28;20028;-76
2021/07/01 05:04:46;;;;;;;19.52;13.30;;;;;5.30;101906.00;;;;5088316;28;20028;-75
2021/07/01 05:07:12;;;;;;;19.35;13.32;;;;;5.20;101907.00;;;;5087776;28;20040;-76
2021/07/01 05:09:39;;;;;;;16.45;11.63;;;;;5.30;101898.00;;;;5087525;28;20027;-76
2021/07/01 05:12:06;;;;;;;23.17;12.32;;;;;5.40;101894.00;;;;5087244;28;20503;-76
2021/07/01 05:14:33;;;;;;;16.30;11.50;;;;;5.30;101904.00;;;;5087746;28;20506;-76
2021/07/01 05:16:59;;;;;;;18.40;10.98;;;;;5.30;101913.00;;;;5087627;28;20031;-76
2021/07/01 05:19:26;;;;;;;13.10;10.32;;;;;5.20;101894.00;;;;5089210;28;20028;-76
2021/07/01 05:21:53;;;;;;;15.45;9.93;;;;;5.10;101898.00;;;;5092664;28;20475;-76
2021/07/01 05:24:19;;;;;;;17.52;10.60;;;;;5.10;101904.00;;;;5093273;28;20036;-76
2021/07/01 05:26:46;;;;;;;14.73;10.15;;;;;5.10;101900.00;;;;5088182;28;20554;-75
2021/07/01 05:29:13;;;;;;;15.20;10.13;;;;;5.20;101905.00;;;;5086997;28;20032;-76
2021/07/01 05:31:39;;;;;;;13.30;9.55;;;;;5.10;101893.00;;;;5087633;28;20028;-76
2021/07/01 05:34:06;;;;;;;15.80;10.45;;;;;5.10;101857.00;;;;5087617;28;20051;-76
2021/07/01 05:36:33;;;;;;;17.83;9.82;;;;;5.10;101891.00;;;;5087149;28;20039;-76
2021/07/01 05:38:59;;;;;;;11.00;8.88;;;;;5.20;101895.00;;;;5087046;28;20111;-76
2021/07/01 05:41:26;;;;;;;16.38;10.63;;;;;5.10;101898.00;;;;5087860;28;20667;-76
2021/07/01 05:43:53;;;;;;;17.48;10.50;;;;;5.10;101863.00;;;;5087360;28;20122;-76
2021/07/01 05:46:20;;;;;;;12.02;9.73;;;;;5.10;101860.00;;;;5087004;28;20067;-76
2021/07/01 05:48:47;;;;;;;20.20;10.98;;;;;5.10;101864.00;;;;5087315;28;20055;-76
2021/07/01 05:51:15;;;;;;;23.65;13.15;;;;;5.10;101872.00;;;;5087611;28;20130;-76
2021/07/01 05:53:51;;;;;;;20.13;11.43;;;;;5.10;101882.00;;;;5086708;28;20631;-75
2021/07/01 05:56:17;;;;;;;24.67;15.75;;;;;5.10;101836.00;;;;5087021;28;20071;-76
2021/07/01 05:58:44;;;;;;;25.45;14.13;;;;;5.10;101857.00;;;;5086885;28;20453;-76
2021/07/01 06:01:11;;;;;;;14.95;12.15;;;;;5.10;101859.00;;;;5086956;28;20111;-76
2021/07/01 06:03:37;;;;;;;18.85;12.00;;;;;5.10;101863.00;;;;5087120;28;20037;-76
2021/07/01 06:06:11;;;;;;;20.10;10.98;;;;;5.10;101836.00;;;;5086100;28;20486;-76
2021/07/01 06:08:39;;;;;;;20.10;10.30;;;;;5.10;101862.00;;;;5087081;28;20032;-76
2021/07/01 06:11:07;;;;;;;16.95;9.88;;;;;5.20;101850.00;;;;5087174;28;20103;-75
2021/07/01 06:13:42;;;;;;;17.98;11.93;;;;;5.20;101853.00;;;;5086504;28;20040;-75
2021/07/01 06:16:15;;;;;;;19.45;10.52;;;;;5.30;101874.00;;;;5087118;28;20024;-76
2021/07/01 06:18:43;;;;;;;17.45;11.43;;;;;5.30;101842.00;;;;5086664;28;20059;-76
2021/07/01 06:21:10;;;;;;;22.10;11.73;;;;;5.30;101875.00;;;;5086564;28;21241;-77
2021/07/01 06:23:39;;;;;;;14.05;9.50;;;;;5.30;101887.00;;;;5086585;28;20437;-76
2021/07/01 06:26:07;;;;;;;17.67;10.93;;;;;5.40;101880.00;;;;5086576;28;20528;-77
2021/07/01 06:28:40;;;;;;;17.35;11.15;;;;;5.40;101851.00;;;;5087008;28;20028;-77
2021/07/01 06:31:08;;;;;;;19.70;11.75;;;;;5.50;101852.00;;;;5086578;28;20029;-77
2021/07/01 06:33:40;;;;;;;19.38;11.05;;;;;5.50;101852.00;;;;5086194;28;20386;-77
2021/07/01 06:36:09;;;;;;;16.92;11.30;;;;;5.50;101837.00;;;;5086709;28;20032;-77
2021/07/01 06:38:47;;;;;;;16.48;10.60;;;;;5.50;101869.00;;;;5086572;28;20058;-77
2021/07/01 06:41:16;;;;;;;18.20;11.07;;;;;5.50;101845.00;;;;5088820;28;20045;-77
2021/07/01 06:43:47;;;;;;;19.10;11.90;;;;;5.50;101865.00;;;;5090409;28;20036;-77
2021/07/01 06:46:17;;;;;;;20.70;10.73;;;;;5.50;101860.00;;;;5090449;28;20068;-76
2021/07/01 06:48:45;;;;;;;21.63;12.13;;;;;5.40;101837.00;;;;5090116;28;20407;-77
2021/07/01 06:51:12;;;;;;;17.90;11.73;;;;;5.50;101858.00;;;;5090388;28;20053;-78
2021/07/01 06:53:44;;;;;;;23.80;12.18;;;;;5.60;101832.00;;;;5090177;28;20463;-78
2021/07/01 06:56:10;;;;;;;;;;;;;5.70;101857.00;;;;5090671;28;20060;-75
2021/07/01 06:58:40;;;;;;;19.77;10.75;;;;;5.70;101854.00;;;;5089562;28;20298;-77
2021/07/01 07:01:07;;;;;;;19.73;12.52;;;;;5.70;101839.00;;;;5090164;28;20047;-76
2021/07/01 07:03:34;;;;;;;23.75;12.85;;;;;5.70;101852.00;;;;5090034;28;20030;-77
2021/07/01 07:06:02;;;;;;;23.67;13.85;;;;;5.80;101865.00;;;;5072594;28;20466;-77
2021/07/01 07:08:29;;;;;;;21.08;12.45;;;;;6.00;101836.00;;;;5089936;28;20027;-77
2021/07/01 07:10:58;;;;;;;22.48;11.30;;;;;6.00;101822.00;;;;5089523;28;20107;-79
2021/07/01 07:13:25;;;;;;;17.75;10.50;;;;;5.90;101859.00;;;;5089796;28;20024;-78
2021/07/01 07:15:54;;;;;;;18.90;10.20;;;;;5.80;101836.00;;;;5090162;28;20036;-77
2021/07/01 07:18:27;;;;;;;14.70;9.73;;;;;5.70;101858.00;;;;5089792;28;20032;-77
2021/07/01 07:21:03;;;;;;;14.25;9.88;;;;;5.60;101836.00;;;;5090122;28;20043;-77
2021/07/01 07:23:33;;;;;;;17.05;7.97;;;;;5.50;101832.00;;;;5089552;28;20035;-78
2021/07/01 07:26:07;;;;;;;13.57;8.52;;;;;5.40;101839.00;;;;5089294;28;20119;-78
2021/07/01 07:28:37;;;;;;;10.45;8.10;;;;;5.50;101822.00;;;;5090528;28;20096;-77
2021/07/01 07:31:05;;;;;;;11.93;8.35;;;;;5.40;101835.00;;;;5089403;28;21023;-78
2021/07/01 07:33:32;;;;;;;8.75;7.65;;;;;5.50;101836.00;;;;5090436;28;20035;-77
2021/07/01 07:36:01;;;;;;;11.20;7.90;;;;;5.50;101845.00;;;;5089465;28;20548;-77
2021/07/01 07:38:28;;;;;;;10.77;8.13;;;;;5.40;101811.00;;;;5089579;28;20082;-76
2021/07/01 07:40:56;;;;;;;8.55;7.65;;;;;5.40;101840.00;;;;5089676;28;20056;-76
2021/07/01 07:43:23;;;;;;;15.43;9.00;;;;;5.50;101839.00;;;;5089247;28;20077;-78
2021/07/01 07:45:52;;;;;;;16.60;10.02;;;;;5.60;101844.00;;;;5088771;28;20483;-77
2021/07/01 07:48:19;;;;;;;15.43;9.52;;;;;5.60;101850.00;;;;5089102;28;20432;-78
2021/07/01 07:50:51;;;;;;;13.43;8.93;;;;;5.70;101841.00;;;;5088999;28;20495;-77
2021/07/01 07:53:29;;;;;;;14.18;9.68;;;;;5.70;101848.00;;;;5088619;28;20111;-77
2021/07/01 07:56:10;;;;;;;16.20;9.13;;;;;5.80;101832.00;;;;5089091;28;20039;-77
2021/07/01 07:58:41;;;;;;;17.95;10.32;;;;;5.90;101840.00;;;;5089185;28;20024;-77
2021/07/01 08:01:11;;;;;;;16.63;10.18;;;;;5.90;101797.00;;;;5088917;28;20115;-77
2021/07/01 08:03:40;;;;;;;14.80;9.80;;;;;5.90;101803.00;;;;5088981;28;20158;-77
2021/07/01 08:06:08;;;;;;;14.65;9.85;;;;;6.00;101835.00;;;;5088698;28;20035;-77
2021/07/01 08:08:40;;;;;;;15.93;9.75;;;;;6.00;101794.00;;;;5088905;28;20067;-77
2021/07/01 08:11:09;;;;;;;15.63;10.57;;;;;6.00;101820.00;;;;5089140;28;20115;-78
2021/07/01 08:13:37;;;;;;;20.55;11.15;;;;;6.00;101796.00;;;;5088333;28;20028;-77
2021/07/01 08:16:06;;;;;;;15.75;9.98;;;;;5.90;101770.00;;;;5088780;28;20483;-78
2021/07/01 08:18:39;;;;;;;16.70;11.35;;;;;5.90;101802.00;;;;5088848;28;20044;-77
2021/07/01 08:21:07;;;;;;;15.85;10.77;;;;;5.80;101811.00;;;;5088510;28;20028;-77
2021/07/01 08:23:35;;;;;;;17.92;10.32;;;;;5.80;101819.00;;;;5089023;28;20510;-77
2021/07/01 08:26:03;;;;;;;16.55;10.77;;;;;5.90;101803.00;;;;5088872;28;20443;-77
2021/07/01 08:28:30;;;;;;;17.63;10.73;;;;;5.90;101816.00;;;;5088639;28;20032;-77
2021/07/01 08:31:10;;;;;;;19.85;10.65;;;;;5.90;101834.00;;;;5088468;28;20730;-77
2021/07/01 08:33:40;;;;;;;16.98;10.40;;;;;5.90;101815.00;;;;5088609;28;20023;-78
2021/07/01 08:36:13;;;;;;;18.40;10.70;;;;;6.00;101845.00;;;;5088632;28;20055;-78
2021/07/01 08:38:41;;;;;;;19.63;11.02;;;;;6.00;101837.00;;;;5088545;28;20111;-77
2021/07/01 08:41:23;;;;;;;19.50;11.35;;;;;6.00;101855.00;;;;5088356;28;20544;-77
2021/07/01 08:44:06;;;;;;;24.73;11.43;;;;;6.10;101857.00;;;;5088385;28;20040;-77
2021/07/01 08:46:38;;;;;;;23.75;11.90;;;;;6.00;101850.00;;;;5088042;28;20042;-77
2021/07/01 08:49:08;;;;;;;14.80;9.60;;;;;6.00;101857.00;;;;5087756;28;20032;-77
2021/07/01 08:51:45;;;;;;;19.00;11.23;;;;;5.90;101828.00;;;;5088250;28;20122;-77
2021/07/01 08:54:33;;;;;;;18.33;10.35;;;;;5.80;101853.00;;;;5088018;28;20055;-77
2021/07/01 08:57:02;;;;;;;16.30;10.00;;;;;5.70;101855.00;;;;5087767;28;20097;-77
2021/07/01 08:59:54;;;;;;;18.35;10.07;;;;;5.50;101838.00;;;;5087822;28;20086;-77
2021/07/01 09:02:24;;;;;;;;;;;;;5.50;101869.00;;;;5088260;28;20111;-74
2021/07/01 09:04:56;;;;;;;21.50;10.23;;;;;5.50;101858.00;;;;5087090;28;19922;-76
2021/07/01 09:07:25;;;;;;;17.00;9.77;;;;;5.40;101875.00;;;;5087759;28;20040;-77
2021/07/01 09:09:57;;;;;;;15.43;10.52;;;;;5.40;101860.00;;;;5087371;28;20028;-77
2021/07/01 09:12:26;;;;;;;15.73;10.75;;;;;5.40;101847.00;;;;5087841;28;20031;-77
2021/07/01 09:15:00;;;;;;;17.60;10.20;;;;;5.20;101851.00;;;;5087562;28;20036;-76
2021/07/01 09:17:29;;;;;;;19.85;10.73;;;;;5.20;101838.00;;;;5088198;28;20031;-77
2021/07/01 09:19:57;;;;;;;14.57;9.82;;;;;5.30;101853.00;;;;5087693;28;20031;-77
2021/07/01 09:22:27;;;;;;;15.52;9.25;;;;;5.20;101850.00;;;;5087222;28;20372;-77
2021/07/01 09:24:54;;;;;;;19.42;9.43;;;;;5.20;101847.00;;;;5087548;28;20506;-77
2021/07/01 09:27:23;;;;;;;16.17;10.93;;;;;5.30;101813.00;;;;5087348;28;20077;-76
2021/07/01 09:29:50;;;;;;;17.65;11.10;;;;;5.20;101841.00;;;;5087197;28;20028;-78
2021/07/01 09:32:20;;;;;;;18.58;10.90;;;;;5.10;101813.00;;;;5086959;28;20034;-76
2021/07/01 09:34:49;;;;;;;14.48;11.25;;;;;5.10;101815.00;;;;5087030;28;20024;-77
2021/07/01 09:37:17;;;;;;;17.67;10.95;;;;;5.00;101833.00;;;;5086857;28;20074;-77
2021/07/01 09:39:46;;;;;;;19.63;10.98;;;;;5.00;101829.00;;;;5086935;28;20028;-77
2021/07/01 09:42:13;;;;;;;24.58;11.75;;;;;5.00;101835.00;;;;5087217;28;20403;-77
2021/07/01 09:44:40;;;;;;;22.45;12.60;;;;;5.00;101830.00;;;;5087726;28;20111;-76
2021/07/01 09:47:10;;;;;;;33.50;16.65;;;;;5.00;101834.00;;;;5086963;28;20085;-77
2021/07/01 09:49:44;;;;;;;23.15;12.60;;;;;5.00;101843.00;;;;5087251;28;20024;-77
2021/07/01 09:52:13;;;;;;;24.08;12.52;;;;;5.00;101848.00;;;;5086703;28;20499;-78
2021/07/01 09:54:47;;;;;;;36.83;13.48;;;;;5.10;101856.00;;;;5087013;28;20024;-77
2021/07/01 09:57:29;;;;;;;26.83;13.40;;;;;5.10;101849.00;;;;5085607;28;20621;-78
2021/07/01 10:00:00;;;;;;;52.50;14.13;;;;;5.10;101856.00;;;;5083777;28;20051;-77
2021/07/01 10:02:29;;;;;;;66.68;14.40;;;;;5.20;101879.00;;;;5086700;28;20128;-77
2021/07/01 10:04:57;;;;;;;149.48;16.42;;;;;5.30;101875.00;;;;5086714;28;20065;-78
2021/07/01 10:07:25;;;;;;;225.15;17.38;;;;;5.40;101889.00;;;;5086541;28;20036;-77
2021/07/01 10:09:54;;;;;;;61.17;16.27;;;;;5.50;101852.00;;;;5087324;28;20020;-77
2021/07/01 10:12:27;;;;;;;162.95;17.42;;;;;5.60;101877.00;;;;5086617;28;20028;-76
2021/07/01 10:14:56;;;;;;;149.65;18.63;;;;;5.80;101894.00;;;;5086561;28;20032;-78
2021/07/01 10:17:24;;;;;;;279.25;24.40;;;;;5.90;101875.00;;;;5090544;28;20032;-78
2021/07/01 10:20:08;;;;;;;315.00;21.15;;;;;5.90;101857.00;;;;5090777;28;20034;-77
2021/07/01 10:22:41;;;;;;;188.55;17.17;;;;;5.90;101884.00;;;;5090702;28;20394;-76
2021/07/01 10:25:09;;;;;;;251.48;15.25;;;;;6.00;101908.00;;;;5090875;28;20030;-77
2021/07/01 10:27:42;;;;;;;286.60;19.42;;;;;6.10;101909.00;;;;5090619;28;20487;-78
2021/07/01 10:30:17;;;;;;;254.70;18.90;;;;;6.20;101916.00;;;;5091090;28;20398;-78
2021/07/01 10:32:46;;;;;;;364.58;22.58;;;;;6.30;101922.00;;;;5090519;28;20023;-77
2021/07/01 10:35:39;;;;;;;290.63;17.60;;;;;6.30;101919.00;;;;5090324;28;20031;-77
2021/07/01 10:38:12;;;;;;;290.70;17.70;;;;;6.30;101906.00;;;;5088238;28;20035;-77
2021/07/01 10:40:41;;;;;;;248.35;15.05;;;;;6.30;101906.00;;;;5090120;28;20066;-78
2021/07/01 10:43:09;;;;;;;135.60;16.05;;;;;6.40;101919.00;;;;5090643;28;20024;-79
2021/07/01 10:45:36;;;;;;;89.15;11.75;;;;;6.50;101890.00;;;;5089398;28;20090;-78
2021/07/01 10:48:15;;;;;;;61.17;12.63;;;;;6.50;101921.00;;;;5090056;28;20089;-77
2021/07/01 10:50:43;;;;;;;65.20;17.48;;;;;6.60;101893.00;;;;5090132;28;20024;-78
2021/07/01 10:53:37;;;;;;;40.22;14.85;;;;;6.70;101904.00;;;;5090291;28;20031;-77
2021/07/01 10:56:40;;;;;;;30.90;12.60;;;;;7.00;101898.00;;;;5090082;28;20039;-78
2021/07/01 10:59:07;;;;;;;21.38;11.32;;;;;7.10;101893.00;;;;5090445;28;20052;-79
2021/07/01 11:01:37;;;;;;;13.57;8.50;;;;;7.40;101859.00;;;;5090045;28;20443;-79
2021/07/01 11:04:08;;;;;;;22.45;11.88;;;;;7.40;101871.00;;;;5089783;28;20042;-78
2021/07/01 11:06:35;;;;;;;;;;;;;7.70;101886.00;;;;5090385;28;20032;-75
2021/07/01 11:09:04;;;;;;;61.60;8.98;;;;;7.20;101889.00;;;;5090291;28;19919;-77
2021/07/01 11:11:34;;;;;;;92.38;8.88;;;;;7.00;101889.00;;;;5090001;28;20064;-78
2021/07/01 11:14:04;;;;;;;107.90;10.23;;;;;7.00;101909.00;;;;5089718;28;20024;-78
2021/07/01 11:16:49;;;;;;;91.80;10.10;;;;;7.10;101896.00;;;;5089423;28;20038;-78
2021/07/01 11:19:18;;;;;;;107.68;9.13;;;;;7.00;101888.00;;;;5089493;28;20036;-78
2021/07/01 11:21:49;;;;;;;212.18;11.90;;;;;6.90;101893.00;;;;5090319;28;20063;-77
2021/07/01 11:24:24;;;;;;;230.20;12.30;;;;;6.80;101917.00;;;;5089739;28;20073;-77
2021/07/01 11:26:52;;;;;;;212.05;13.82;;;;;6.80;101903.00;;;;5089112;28;20540;-77
2021/07/01 11:29:38;;;;;;;197.13;13.32;;;;;7.10;101876.00;;;;5088678;28;20399;-77
2021/07/01 11:32:19;;;;;;;175.32;12.68;;;;;7.40;101890.00;;;;5089652;28;20024;-77
2021/07/01 11:34:47;;;;;;;284.00;15.18;;;;;7.40;101875.00;;;;5089900;28;20035;-76
2021/07/01 11:37:16;;;;;;;436.63;17.77;;;;;7.30;101899.00;;;;5089137;28;20032;-77
2021/07/01 11:39:43;;;;;;;386.70;16.90;;;;;7.30;101885.00;;;;5098320;28;20043;-77
2021/07/01 11:42:10;;;;;;;258.50;13.35;;;;;7.50;101886.00;;;;5109521;28;20083;-77
2021/07/01 11:44:42;;;;;;;296.67;14.85;;;;;7.30;101886.00;;;;5098359;28;20107;-78
2021/07/01 11:47:09;;;;;;;475.02;18.63;;;;;7.50;101862.00;;;;5089977;28;20067;-76
2021/07/01 11:49:39;;;;;;;442.70;18.33;;;;;7.60;101875.00;;;;5089175;28;20093;-77
2021/07/01 11:52:06;;;;;;;306.42;15.20;;;;;7.70;101858.00;;;;5089847;28;20043;-77
2021/07/01 11:54:33;;;;;;;428.20;17.08;;;;;7.80;101889.00;;;;5089838;28;20035;-77
2021/07/01 11:57:00;;;;;;;154.43;11.82;;;;;7.80;101878.00;;;;5089603;28;20024;-77
2021/07/01 11:59:28;;;;;;;264.92;12.50;;;;;7.70;101910.00;;;;5089481;28;20411;-77
2021/07/01 12:01:56;;;;;;;235.70;11.75;;;;;7.70;101909.00;;;;5090160;28;20059;-78
2021/07/01 12:04:43;;;;;;;156.38;10.45;;;;;7.60;101913.00;;;;5088705;28;20446;-78
2021/07/01 12:07:22;;;;;;;204.23;12.57;;;;;7.50;101888.00;;;;5089213;28;20032;-79
2021/07/01 12:09:50;;;;;;;125.32;13.20;;;;;7.70;101895.00;;;;5089383;28;20035;-78